Logs | Don Ward, Raleigh, NC, USA - FM05pr
Paging Controls
Log ID Date UTC KHz ID Location S/P ITU Region GSQ LSB USB Sec. Fmt. Power KM Miles Deg
805042 2014-03-31 1003 300 YIV Island Lake MB CAN na EO23qu 500 2362 1468 333
805043 2014-03-31 1003 300 YOG Ogoki Post ON CAN na EO71bp 25 1859 1155 344
805038 2014-03-31 0832 284 RT Rankin Inlet NU CAN na EP32wt 1000 3150 1957 347
806739 2014-03-31 0814 320 3FOY2 Babylon XUU xx 400 398 11.439
805053 2014-03-31 0708 317 VC La Ronge SK CAN na DO75ic 500 2956 1837 325
805054 2014-03-31 0708 317 ZMX Janvier / Mirabel (Montreal) QC CAN na FN35ar 20 1181 734 18
805036 2014-03-31 0638 284 QD The Pas MB CAN na DO93lx 500 2663 1655 326
805004 2014-03-31 0626 272 PFH 'Philmont' Hudson NY USA na FN32dg 25 846 525 29
805044 2014-03-31 0602 303 YPP Parent QC CAN na FN27pv 500 1392 865 12
805029 2014-03-31 0532 281 CA Cartwright NL CAN na GO13lr 1000 2612 1623 33
805002 2014-03-31 0526 272 IK Kankakee IL USA na EN61ba 991 616 309
805007 2014-03-31 0526 272 ULM New Ulm MN USA na EN24sh 25 1641 1020 310
805006 2014-03-31 0520 272 UCP 'Castle' New Castle PA USA na EN91ta 25 606 377 346
805014 2014-03-31 0520 274 YPM Pikangikum ON CAN na EO31at 25 2158 1341 330
805000 2014-03-31 0426 272 BT 'Batol' Battle Creek MI USA na EN72ji 925 575 324
805003 2014-03-31 0426 272 OLY 'Olney' Olney-Noble IL USA na EM58vr 25 904 562 294
805028 2014-03-31 0138 280 QX Gander NL CAN na GN28px 1000 2444 1518 45
805048 2014-03-30 0905 311 DVK 'Goodall' Danville KY USA na EM77on 580 360 292
805040 2014-03-30 0841 299 HW 'Cubla' Wilmington OH USA na EM89bi 608 378 313
805050 2014-03-30 0804 316 FFC 'Pecat' Peachtree City GA USA na EM73sh 591 367 244
805041 2014-03-30 0740 299 TR Bristol TN USA na EM86un 335 208 287
805032 2014-03-30 0658 283 PT Pelee Island ON CAN na EN81ps 100 756 470 333
805033 2014-03-30 0658 283 UZG 'Zarago' Zaragoza (Ciudad de la Habana) CUB ca EL82xw 250 1458 906 193
805039 2014-03-30 0658 289 YLQ La Tuque QC CAN na FN37oj 500 1386 861 18
805008 2014-03-30 0646 272 YQA Muskoka ON CAN na FN05ia 400 1034 643 357
805009 2014-03-30 0646 272 ZMR 'Mirabel' Montreal QC CAN na FN25wo 200 1164 723 17
805011 2014-03-30 0646 273 ZV Sept-Iles QC CAN na FO60we 500 1900 1181 28
805016 2014-03-30 0646 275 R1 Thetford Mines QC CAN na FN46ib 25 1306 811 26
805019 2014-03-30 0646 276 YEL Elliot Lake ON CAN na EN86qi 250 1226 762 345
805020 2014-03-30 0646 276 YHR Chevery QC CAN na GO00el 500 2243 1394 37
805023 2014-03-30 0646 278 EOE 'Enoree' Newberry SC USA na EM94eh 25 309 192 240
805026 2014-03-30 0646 278 NM Matagami QC CAN na FN19dr 400 1559 968 2
805045 2014-03-30 0622 305 YQ Churchill / Eastern Creek MB CAN na EO38as 500 2793 1736 341
805047 2014-03-30 0622 309 GPI Guapi CLM sa FJ12bn 500 3689 2292 178
805049 2014-03-30 0604 314 CVY 'Cavalry' Fort Riley KS USA na EM19oa 25 1636 1017 288
805055 2014-03-30 0304 317 ZZR 'Trenton (Apt)' Severn ON CAN na FN14eb 50 931 579 5
805051 2014-03-30 0104 317 CBE Cumberland MD USA na FM09pp 435 271
805052 2014-03-30 0034 317 IN 'Reeno' Winston Salem NC USA na EM96vb 140 87 285
805022 2014-03-29 0937 278 BST Belfast ME USA na FN54lj 1265 786 37
805034 2014-03-29 0648 284 IDL Indianola MS USA na EM43pl 25 1126 699 260
805046 2014-03-29 0642 309 EEX 'Emanuel Co' Swainsboro GA USA na EM82sq 25 483 300 226
805027 2014-03-29 0618 280 MQW Mc. Rae GA USA na EM82nc 25 557 346 224
804999 2014-03-29 0606 270 PYG Pageland SC USA na EM94tr 25 188 117 234
805001 2014-03-29 0606 272 GLS Galapagos GAL sa EI49un 4197 2607 199
805005 2014-03-29 0606 272 PIM Pine Mountain GA USA na EM72nu 25 650 404 242
805012 2014-03-29 0606 274 AKQ Wakefield VA USA na FM16lx 25 204 127 46
805013 2014-03-29 0606 274 DLC Dillon SC USA na FM04hk 25 156 97 203
805017 2014-03-29 0606 275 RU 'Rovdy' Salisbury NC USA na EM95sr 158 98 270
805018 2014-03-29 0606 276 IS 'Stals' Kinston NC USA na FM15df 106 66 121
805025 2014-03-29 0606 278 HFF 'Mackall' Camp Mackall NC USA na FM05ga 104 65 221
805010 2014-03-29 0536 273 FK 'Airbe' Fort Campbell (Hopkinsville) KY USA na EM66hr 25 785 488 280
805015 2014-03-29 0406 275 FPR Fort Pierce FL USA na EL97tl 49 931 578 190
805024 2014-03-29 0406 278 GPQ Carrollton GA USA na EM73kn 25 634 394 249
805031 2014-03-29 0218 282 OXD Oxford OH USA na EM79om 681 423 310
805037 2014-03-29 0218 284 RQY 'Randolph Co' Elkins WV USA na FM08bv 50 367 228 344
805021 2014-03-29 0006 278 ADG Adrian MI USA na EN71xu 50 823 511 327
805030 2014-03-28 1612 281 IL 'Airli' Wilmington NC USA na FM14be 187 116 155
805035 2014-03-28 1612 284 PTB Petersburg VA USA na FM17fd 25 189 117 33
790863 2014-02-23 0642 385 LN 'Potts' Lincoln NE USA na EN10or 1062 1024 5.967 45 1671 1038 294
790909 2014-02-23 0627 393 BR 'Depoo' Brownsville TX USA na EL15fx 1031 5.846 2094 1301 244
790920 2014-02-23 0627 395 OS 'Pober' Oshkosh WI USA na EN53ru 1025 1034 6.011 1232 765 320
790922 2014-02-23 0627 396 CQB 'Tilghman' Chandler OK USA na EM15or 1000 5.753 1630 1013 275
790868 2014-02-23 0612 385 YNC Wemindji QC CAN na FO03oa 392 10.388 25 1923 1195 359
790881 2014-02-23 0612 388 MD 'Cabbi' Carbondale / Murphysboro IL USA na EM57ju 1019 8.601 964 599 287
790886 2014-02-23 0612 388 UN 'Penue' State College PA USA na FN10dv 1019 1021 8.6 581 361 8
790890 2014-02-23 0612 390 BR 'Burns' Burlington IL USA na EN40kp 1032 1039 6.11 25 1213 754 300
790892 2014-02-23 0612 390 OWC 'Coffee County' Douglas GA USA na EM81mj 1023 1021 6.687 25 622 387 220
790895 2014-02-23 0612 391 BHN 'Buckhorn' Fort Leonard Wood MO USA na EM37wq 1056 1012 8.18 1214 755 284
790900 2014-02-23 0612 391 MFI Marshfield WI USA na EN44vp 1024 1030 6.14 25 1389 863 319
790884 2014-02-23 0156 388 PK 'Versi' parkersburg WV USA na EM99gg 1019 1021 8.601 462 287 329
790883 2014-02-22 1132 388 OK 'Preso' Preston (Okmulgee) OK USA na EM25as 1052 8.214 25 1555 966 275
790919 2014-02-22 1047 395 JM 'Sabon' Jamestown ND USA na EN06ru 1059 1016 6.104 2058 1279 313
790928 2014-02-22 1031 396 YPH Inukjuak QC CAN na FO08wk 404 10.128 500 2525 1569
790918 2014-02-22 0947 395 HR 'Bakky' Harrison AR USA na EM36kd 1040 1031 5.976 25 1297 806 276
790887 2014-02-22 0832 389 CSB 'Harry Strunk' Cambridge NE USA na DN90wh 1024 6.762 25 1939 1204 291
790874 2014-02-22 0702 387 6E Grand Manan NB CAN na FN64or 393 10.553 50 1420 882 41
790925 2014-02-22 0631 396 JC Rigolet NL CAN na GO04se 394 10.408 500 2579 1602 30
790904 2014-02-22 0617 392 AGZ Wagner SD USA na EN03ub 1012 7.081 25 1864 1158 301
790905 2014-02-22 0617 392 FMZ 'Beklof' Fairmont NE USA na EN10fo 1034 7.302 25 1729 1074 293
790906 2014-02-22 0617 392 JNM Monroe GA USA na EM83dr 1007 1029 14 25 508 316 245
790907 2014-02-22 0617 392 ML 'Sabar' Monroe LA USA na EM32wk 1037 1029 5.8 1287 800 257
790908 2014-02-22 0617 392 XVG Longville MN USA na EN26vx 1042 6.788 25 1793 1114 318
790911 2014-02-22 0617 394 AI 'Video' Anderson IN USA na EN70fb 1052 1041 6.037 25 769 478 310
790912 2014-02-22 0617 394 DTE 'Mark Anton' Dayton TN USA na EM75ml 1026 1027 4.639 25 566 351 269
790913 2014-02-22 0617 394 MKL 'Mersy' Jackson TN USA na EM55mm 1016 1023 8.6 25 926 576 271
790914 2014-02-22 0617 394 SP 'Snore' Spencer IA USA na EN23if 404 412 5.292 1645 1022 305
790915 2014-02-22 0617 395 CA 'Harvs' Newton KS USA na EM18id 1041 1053 6.271 25 1670 1038 284
790916 2014-02-22 0617 395 CWV Claxton GA USA na EM92be 1005 1033 6.293 490 305 217
790921 2014-02-22 0617 395 ULS Ulysses KS USA na DM97ho 1018 7.427 2027 1260 282
790923 2014-02-22 0617 396 CRS Corsicana TX USA na EM12ta 1017 6.498 25 1680 1044 260
790924 2014-02-22 0617 396 GOI 'Godman' Fort Knox KY USA na EM77ax 1044 1023 8.21 692 430 293
790926 2014-02-22 0617 396 NEL Lakehurst NJ USA na FN20tb 1001 1066 6.259 614 381 36
790929 2014-02-22 0617 397 BE 'Mally' Benton Harbour MI USA na EN62ud 1048 996 4.531 968 602 319
790930 2014-02-22 0617 397 CIR Cairo IL USA na EM57jb 1021 6.413 25 951 591 282
790931 2014-02-22 0617 397 JE 'Algoa' Jefferson City MO USA na EM38xn 1052 1025 5.927 1222 759 288
790932 2014-02-22 0617 397 OW 'Stoge' Norwood MA USA na FN42kc 1059 1034 6.025 965 600 40
790933 2014-02-22 0617 397 ZHA Ancaster (Hamilton) ON CAN na EN93xe 399 10.259 14 837 520 352
790934 2014-02-22 0617 397 ZST 'Alpine' Saint John NB CAN na FN75af 414 10.298 50 1506 936 41
790935 2014-02-22 0617 398 HFY 'Greenwood' Indianapolis IN USA na EM69wp 1015 1017 6.803 784 487 305
790859 2014-02-22 0602 385 DXB De Ridder LA USA na EM30hs 1043 1025 8.037 1469 913 252
790860 2014-02-22 0602 385 EMR 'Emory' Augusta GA USA na EM93al 1053 1027 7.769 400 389 241 230
790861 2014-02-22 0602 385 EOP 'Waverly' Pike County Airport OH USA na EM89me 1019 1017 6.088 25 537 334 316
790862 2014-02-22 0602 385 JD 'Gooey' Belleville IL USA na EM58dl 1063 1031 6.091 1021 635 290
790866 2014-02-22 0602 385 TKL 'Tikal' Santa Elena Y Flores (Peten) GTM ca EK56bv 991 4.626 2367 1471 210
790867 2014-02-22 0602 385 UWL New Castle IN USA na EM79iv 1021 1014 6.502 25 741 460 310
790869 2014-02-22 0602 385 ZDH 'Rexdale' Riverhead Park (Toronto) ON CAN na FN03fr 396 10.53 50 892 554 355
790870 2014-02-22 0602 386 D8 Dolbeau QC CAN na FN38ss 402 9.811 100 1537 955 17
790871 2014-02-22 0602 386 GMA 'Mahn' Whitefield NH USA na FN44di 1027 5.505 1128 701 29
790873 2014-02-22 0602 386 SYF St. Francis KS USA na DM99cr 1006 5.287 25 2072 1287 289
790875 2014-02-22 0602 388 AM 'Picny' Tampa FL USA na EL87ru 1054 1021 5.951 400 947 589 203
790876 2014-02-22 0602 388 CDX 'Cumberland River' Somerset KY USA na EM76px 1054 1039 7.865 25 555 345 286
790877 2014-02-22 0602 388 CFJ Crawfordsville IN USA na EM69nx 1014 1015 7.372 25 858 533 305
790878 2014-02-22 0602 388 GLY 'Golden Valley' Clinton MO USA na EM38di 1028 7.42 25 1361 846 286
790879 2014-02-22 0602 388 H7 Manitoulin East (Manitowaning) ON CAN na EN95bu 382 10.329 25 1157 719 347
790882 2014-02-22 0602 388 OFZ 'Trail' Fort Sill OK USA na EM04ts 1042 7.794 1786 1110 272
790888 2014-02-22 0602 389 EN 'Codee' Kenosha WI USA na EN52xn 1054 1018 8.045 1106 687 316
790889 2014-02-22 0602 389 PVC Provincetown MA USA na FN42vb 1051 1026 8.036 25 1017 632 43
790891 2014-02-22 0602 390 JT Stephenville NL CAN na GN08on 393 10.401 450 2163 1344 42
790893 2014-02-22 0602 390 URV Varder CUB ca EL93ga 1175 1259 7.071 1438 893 191
790894 2014-02-22 0602 391 3B Brockville ON CAN na FN24dq 387 9.06 100 1028 639 13
790896 2014-02-22 0602 391 DDP San Juan / Dorado / Luiz Munoz Marin Intl PR PTR ca FK68tl 1019 1033 10.195 2000 2269 1410 144
790897 2014-02-22 0602 391 EFW Jefferson IA USA na EN22ta 1016 7.783 25 1523 946 302
790898 2014-02-22 0602 391 FIQ 'Fiddlers' Morganton NC USA na EM95dr 1036 1017 6.589 25 271 168 270
790899 2014-02-22 0602 391 GXD Nacogdoches TX USA na EM21pp 1025 7.248 25 1546 961 257
790901 2014-02-22 0602 391 OO Oshawa ON CAN na FN03nw 397 10.22 7 913 567 359
790903 2014-02-22 0602 391 SWZ 'Sewart' Smyrna TN USA na EM65sw 1015 1014 6.233 25 699 434 274
790865 2014-02-22 0532 385 PTP Pointe a Pitre GDL ca FK96eg 407 10.295 2746 1706 137
790872 2014-02-22 0432 386 LYO Lyons KS USA na EM08vi 1026 1013 7.178 25 1752 1088 285
790936 2014-02-22 0431 399 ZHD 'Thunder' Dryden ON CAN na EN39qt 406 10.541 25 1928 1198 328
790917 2014-02-22 0147 395 GBR Great Barrington MA USA na FN32he 1031 1019 5.328 25 853 530 31
790902 2014-02-22 0132 391 PLX 'Palestine' Robinson IL USA na EM69ea 1014 9.153 25 868 539 297
790864 2014-02-22 0046 385 LY 'Bojar' Evington VA USA na FM07jg 1018 1022 8.599 177 110 345
790910 2014-02-21 1745 393 FGP Fort Bragg NC USA na FM05od 1068 1021 7.307 40 65 41 186
790927 2014-02-21 1745 396 UV 'Bales' Martinsville VA USA na FM06ao 1027 1022 4.221 25 149 92 311
790885 2014-02-21 1730 388 RNW Chocowinity NC USA na FM15km 1025 1021 5.424 25 145 90 98
790880 2014-02-21 1700 388 MAO Marion SC USA na FM04ie 1013 1016 7.923 25 179 112 197
779864 2014-01-27 0623 419 GB 'Babsy' Great Bend KS USA na EM08ng 1042 6.836 25 1809 1124 284
779847 2014-01-27 0507 414 EGT Wellington KS USA na EM17hh 1078 4.987 25 1674 1040 281
779858 2014-01-27 0507 415 SLS Salinas (Guayas) EQA sa EI97mt 1021 1019 5.615 4222 2624 183
779859 2014-01-27 0507 416 LB 'Panbe' North Platte NE USA na DN91rb 1054 7.993 50 1987 1234 293
779791 2014-01-26 0643 402 CV Carlz Carlsbad NM USA na DM72tg 1029 1014 6.095 2390 1485 268
779809 2014-01-26 0543 405 2K Camrose AB CAN na DO33oa 393 10.445 3273 2033 316
779842 2014-01-26 0458 413 MC 'Ferni' Mc Comb MS USA na EM41rg 397 403 8.599 25 1203 747 249
779855 2014-01-26 0444 414 ZRG Brophy (Regina) SK CAN na DO70ok 405 10.547 20 2652 1648 316
779794 2014-01-26 0443 402 M3 Kindersley SK CAN na DO51jm 1023 10.243 2983 1853 315
779812 2014-01-26 0443 405 BVI Boa Vista (RR) BRA sa FJ92pu 1045 6.596 4098 2546 149
779865 2014-01-25 2344 419 RYS 'Grosse Ile' Detroit / Grosse Ile MI USA na EN82kc 1027 5.507 25 805 500 333
779832 2014-01-25 0834 410 DQU De Quincy LA USA na EM30gk 1055 1018 7.758 1493 927 250
779802 2014-01-25 0749 404 MOG Montague CA USA na CN81sr 1051 1027 8.026 25 3811 2368 293
779770 2014-01-25 0733 400 1L Fort MacKay / Firebag AB CAN na DO47mg 400 8.1 3381 2101 325
779830 2014-01-25 0733 410 6Z La Loche SK CAN na DO56hl 407 8.172 3253 2021 324
779863 2014-01-25 0648 418 CW 'Mossy' Lake Charles LA USA na EM30jh 1046 6.095 25 1478 918 250
779831 2014-01-25 0618 410 BA 'Clifs' Columbus IN USA na EM79ch 1057 1037 5.976 25 741 460 304
779833 2014-01-25 0618 410 EGQ Emmetsburg IA USA na EN23pc 1025 6.718 1596 992 305
779834 2014-01-25 0618 410 GDV Glendive MT USA na DN77od 1026 1022 6.184 100 2500 1553 308
779836 2014-01-25 0618 410 SO 'Suomi' Marquette MI USA na EN66hg 1060 1030 6.103 25 1377 856 330
779837 2014-01-25 0618 411 HDL Holdenville OK USA na EM15tc 1020 6.792 1600 994 272
779838 2014-01-25 0618 411 SDA Shenandoah IA USA na EN20hs 1038 4.545 25 1556 967 296
779839 2014-01-25 0618 412 CMY 'Mc Coy' Sparta WI USA na EN43qw 1060 1020 8.633 10 1364 848 315
779841 2014-01-25 0618 412 JHH Griffin GA USA na EM73ve 1027 1019 6.554 578 359 242
779843 2014-01-25 0618 413 YHD Dryden ON CAN na EN39nu 426 10.118 250 1943 1207 328
779844 2014-01-25 0618 414 3U Gatineau QC CAN na FN25fm 397 387 10.548 85 1121 696 12
779845 2014-01-25 0618 414 AZE Hazlehurst GA USA na EM81qv 1023 1019 5.116 559 347 221
779846 2014-01-25 0618 414 CSS 'Court House' Washington Court House OH USA na EM89ho 1021 1017 5.654 25 595 370 317
779850 2014-01-25 0618 414 IEB Lebanon MO USA na EM37qn 1029 1039 8.057 1257 781 283
779851 2014-01-25 0618 414 LK 'Laang' Louisville KY USA na EM78ed 1047 5.688 671 417 295
779852 2014-01-25 0618 414 MSD Mansfield LA USA na EM32cb 1043 1018 8.022 25 1449 900 257
779853 2014-01-25 0618 414 OOA Oskaloosa IA USA na EN31sf 1023 1018 6.926 25 1342 834 301
779854 2014-01-25 0618 414 SU 'Salix' Sioux City IA USA na EN12uh 1060 5.883 40 1682 1045 301
779856 2014-01-25 0618 415 CBC West End (Cayman Brac) CYM ca FK09bq 1019 1020 8.509 600 1787 1111 183
779857 2014-01-25 0618 415 DJD Canton GA USA na EM74sg 1024 1030 5.82 25 548 341 254
779860 2014-01-25 0618 417 HHG Huntington IN USA na EN70gu 1052 1041 6.682 25 819 509 316
779862 2014-01-25 0618 417 IY 'Chukk' Charles City IA USA na EN33pd 1020 4.244 25 1455 904 308
779866 2014-01-25 0618 419 TX 'Gwnet' Lawrenceville GA USA na EM84ba 1060 1013 7.991 25 508 316 249
779771 2014-01-25 0603 400 AHQ Wahoo NE USA na EN11qf 1039 6.246 1671 1038 296
779772 2014-01-25 0603 400 AI 'Addmo' Ardmore OK USA na EM14mf 1060 1020 6.067 25 1669 1037 269
779773 2014-01-25 0603 400 CI 'Koloe' Sault Ste. Marie MI USA na EN76rh 1051 1018 5.732 25 1274 791 339
779775 2014-01-25 0603 400 FN 'Colln' Fort Collins / Loveland CO USA na DN70mi 1065 6.023 25 2346 1458 290
779777 2014-01-25 0603 400 MS 'Monah' Madison WI USA na EN53hb 1031 1032 6.382 1225 761 314
779779 2014-01-25 0603 400 OHY 'Coney' Cordele GA USA na EM81bx 1034 1027 7.912 25 633 394 230
779780 2014-01-25 0603 400 PIE Piedecuesta / Bucaramanga (Santander) CLM sa FJ36kv 1045 1030 8.451 3256 2023 168
779781 2014-01-25 0603 400 PPI 'Hopey' St Paul MN USA na EN34mu 1049 8.389 25 1574 978 314
779782 2014-01-25 0603 400 PTD Potsdam NY USA na FN24nr 1018 1021 5.743 25 1052 654 16
779783 2014-01-25 0603 400 QQ Comox BC CAN na CN79ms 402 10.184 4010 2491 307
779784 2014-01-25 0603 400 RO 'Breit' Rochester NY USA na FN13fd 1055 6.23 831 516 6
779785 2014-01-25 0603 400 ROB 'Robinson' Waco TX USA na EM11lm 1051 9.958 1758 1092 259
779786 2014-01-25 0603 400 SLO Salem IL USA na EM58mp 1018 7.682 25 963 599 292
779787 2014-01-25 0603 400 UWI 'Whitfield' Dalton GA USA na EM74ms 1041 1037 5.534 25 577 359 261
779789 2014-01-25 0603 401 Y8 Drummondville QC CAN na FN35tu 393 9.488 126 1245 773 23
779790 2014-01-25 0603 401 YPO Peawanuck ON CAN na EO74gx 394 10.284 125 2202 1368 348
779792 2014-01-25 0603 402 L4 Nipawin SK CAN na DO73xi 980 10.325 200 2777 1726 322
779793 2014-01-25 0603 402 LW 'Haget' Lawrence MA USA na FN42jp 1045 1045 4.888 1004 624 37
779796 2014-01-25 0603 403 AXA Algona IA USA na EN23ub 1013 6.02 25 1564 972 306
779797 2014-01-25 0603 403 ZTO Woodhill / Brampton (Toronto) ON CAN na FN03dr 406 10.49 40 894 555 354
779798 2014-01-25 0603 404 BMW 'Barrow Co' Winder GA USA na EM83ew 1042 1046 5.529 25 491 305 247
779800 2014-01-25 0603 404 FNB 'Brenner' Falls City NE USA na EN20eb 989 6.146 25 1558 968 293
779801 2014-01-25 0603 404 HU 'Saltt' Hutchinson KS USA na EM18ac 1041 1029 6.016 25 1728 1074 284
779803 2014-01-25 0603 404 OLF Wolf Point MT USA na DN78ec 100 2597 1614 310
779804 2014-01-25 0603 404 SG 'Coole' Springfield MO USA na EM37ge 1056 5.492 1328 825 281
779805 2014-01-25 0603 404 XCR 'Ripley' Little Falls MN USA na EN26tb 1034 1037 7.949 50 1742 1082 316
779806 2014-01-25 0603 404 YSL St Leonard NB CAN na FN67be 395 10.185 1000 1558 968 31
779807 2014-01-25 0603 404 ZR Sarnia ON CAN na EN82vw 401 10.452 50 856 532 340
779808 2014-01-25 0603 405 5 Jupiter FL USA na EL96tv 970 3.633 995 618 189
779810 2014-01-25 0603 405 7L La Sarre QC CAN na FN08jv 390 10.308 25 1465 910 358
779814 2014-01-25 0603 406 YLJ Meadow Lake SK CAN na DO54qd 399 10.226 15 3079 1913 321
779815 2014-01-25 0603 407 AQ 'Kooky' Appleton WI USA na EN54tf 1068 1035 5.99 25 1252 778 321
779816 2014-01-25 0603 407 BZ 'Bullo' Statesboro GA USA na EM92ek 1020 1023 5.543 25 454 282 217
779817 2014-01-25 0603 407 CM 'Veals' Champaign / Urbana IL USA na EM59vx 1054 1020 5.918 958 595 302
779818 2014-01-25 0603 407 FR 'Frikk' Farmingdale NY USA na FN30gs 1042 1022 6.14 724 450 37
779819 2014-01-25 0603 407 HRU Herington KS USA na EM18oq 1045 1025 7.892 25 1632 1014 287
779820 2014-01-25 0603 407 IL 'Airbo' Wilmington OH USA na EM89dl 1027 1045 6.418 25 606 377 314
779821 2014-01-25 0603 407 OOC 'Campi' Natchitoches LA USA na EM31lp 1043 1035 7.776 25 1400 870 255
779822 2014-01-25 0603 407 OX 'Landy' Ocean City MD USA na FM28ji 1038 1043 4.821 426 265 45
779823 2014-01-25 0603 407 ZHU Hauts-Bois / St Hubert (Montreal) QC CAN na FN35hn 379 417 10.483 95 1182 734 20
779824 2014-01-25 0603 408 HBD Hubbard OH USA na EN91rd 1060 1018 8.077 623 387 345
779825 2014-01-25 0603 408 JDM 'Wheatfield' Colby KS USA na DM99lm 1030 1030 6.289 25 2006 1246 288
779826 2014-01-25 0603 408 LQK 'Lake Keowee' Pickins SC USA na EM84pt 1051 1049 8.112 25 377 234 255
779827 2014-01-25 0603 408 SFB Sanford FL USA na EL98js 1048 993 6.653 25 809 502 197
779828 2014-01-25 0603 408 SN 'St. Catharines' Saint Catharines ON CAN na FN03id 397 10.771 12 826 513 356
779829 2014-01-25 0603 409 YTA Pembroke ON CAN na FN15jt 392 391 10.498 25 1128 701 5
779849 2014-01-25 0448 414 GRN Gordon NE USA na DN82vt 1034 6.679 2162 1343 298
779788 2014-01-25 0433 401 LA 'Earle' Lafayette IN USA na EN60lk 1023 5.996 25 897 557 308
779811 2014-01-25 0433 405 AGH 'Pekks' Laredo TX USA na EL07gp 1046 5.791 2153 1338 251
779774 2014-01-25 0303 400 CKN Crookston MN USA na EN17qu 1021 1044 7.148 25 1997 1241 317
779795 2014-01-25 0303 402 MQ Miquelon (Grande Miquelon) SPM na GN17tc 402 407 10.147 2238 1391 48
779835 2014-01-24 1716 410 JU 'Ashee' West Jefferson NC USA na EM96ik 1017 1012 5.803 25 245 152 289
779840 2014-01-24 1716 412 CTZ Clinton NC USA na FM04tx 1016 1026 5.633 25 89 55 159
779848 2014-01-24 1716 414 FDW Winnsboro SC USA na EM94kh 1012 1011 5.767 25 271 168 235
779861 2014-01-24 1716 417 HQT 'Harnett' Coats NC USA na FM05pk 956 1029 5.358 25 32 20 180
779776 2014-01-24 1701 400 LKR Lancaster SC USA na EM94nr 1022 1027 5.963 226 140 241
779778 2014-01-24 1701 400 NHK 'Patuxent' Patuxent River MD USA na FM18tg 1050 1019 8.59 350 218 35
779799 2014-01-24 1701 404 CKI Kingstree SC USA na FM03br 1024 1015 6.929 25 247 153 205
779813 2014-01-24 1701 406 TT 'Leeco' Sanford NC USA na FM05kl 1042 1024 3.726 47 29 233
772178 2014-01-04 0941 250 STR Santa Rosa EQA sa EI96xn 4357 2707 182
772123 2014-01-03 0750 216 CO 'Epsom' Concord NH USA na FN43gc 1029 639 34
772131 2014-01-03 0750 374 EE 'Tamie' Alexandria MN USA na EN25it 1785 1109 313
772130 2014-01-03 0726 342 PFT 'Piney' Pinecreek MN USA na EN28ax 2035 1264 321
772174 2014-01-03 0338 407 LET Leticia (Amazonas) CLM sa FI55at 3000 4531 2815 166
777623 2014-01-02 0857 245 MG 'Marra' Montgomery AL USA na EM62rh 1055 1045 5.931 815 507 244
772129 2014-01-02 0532 336 MA 'Wexford' Cadillac MI USA na EN74ff 1109 689 330
772128 2014-01-02 0420 257 ETC Tarboro NC USA na FM15fw 108 67 77
777621 2014-01-01 0627 244 3W Goldboro Offshore Platform XOE iw FN94ee 404 402 5.428 1728 1074 51
777622 2014-01-01 0627 245 ATF Alta Floresta (MT) BRA sa GI10wd 1025 7.197 5595 3476 150
772126 2014-01-01 0615 230 PBL Puerto Bolivar CLM sa FK32xf 2697 1676 163
772165 2014-01-01 0615 232 GT 'Grand Turk' Cockburn Town (Grand Turk Island) TCA ca FL41kk 1752 1088 153
772125 2014-01-01 0603 221 DYO 'Smuto' Rutland VT USA na FN33mq 1012 629 27
777620 2013-12-31 0804 242 3E Platform (See comments) XON iw GN03bq 1028 8.305 1832 1138 55
772139 2013-12-31 0740 215 ESM Esmeraldas EQA sa FJ00ex 3865 2401 181
777619 2013-12-31 0728 201 IP Mobile AZ USA na DM33tc 1020 4.125 25 3087 1918 274
772118 2013-12-31 0652 509 WD2XSH/42 Caldwell NJ USA na
772160 2013-12-31 0604 415 CBC West End (Cayman Brac) CYM ca FK09bq 600 1787 1111 183
772162 2013-12-31 0503 362 GND 'Port Salines' Grand Anse GRD ca FK92ca 150 3136 1949 142
772168 2013-12-31 0503 360 BFI The Mill (Beef Island) VRG ca FK78rk 100 2374 1475 140
772136 2013-12-31 0439 330 SIS Puerto Asis CLM sa FJ10rm 3921 2436 176
772127 2013-12-31 0351 280 SOL 'Chongon' Guayaquil (Guayas) EQA sa EI97xs 80 4223 2624 182
772172 2013-12-31 0051 389 CP Lisboa / Caparica POR eu IM58jp 6013 3736 64
772176 2013-12-31 0015 360 HT Horta / Faial Island AZR eu HM58qm 4396 2731 70
772169 2013-12-30 0926 353 LLD Lanai HI HWA oc BL10ms 2000 7649 4753 280
772124 2013-12-30 0714 221 CUR Cuenca EQA sa FI07md 4290 2666 180
772177 2013-12-30 0413 327 FXC Cayenne GUF sa GJ34tt 300 4368 2714 135
772140 2013-12-30 0312 415 SLS Salinas (Guayas) EQA sa EI97mt 4222 2624 183
772158 2013-12-30 0224 369 ZDX Coolidge Saint Johns ATG ca FK97cd 700 2657 1651 136
772120 2013-12-29 1403 28223 KP3FT Ponce PR PTR ca FK68qa 4 2300 1429 145
772121 2013-12-29 1359 28251 WA4GEH Clayton NC USA na FM05tw 3.5 38 24 52
772122 2013-12-29 1355 28275 NP2SH St John VIR ca FK78se 5 2402 1492 140
772116 2013-12-28 0528 477.6 WD2XSH/38 Charlestown NH USA na FN33sg 995 618 30
772117 2013-12-28 0528 477.9 WD2XSH/31 Rutland (Forest) VA USA na FN33lo 1000 622 27
772175 2013-12-28 0404 368 ZP Sandspit BC CAN na CO43ce 4510 2802 312
772137 2013-12-28 0227 418 TLC Tulcan (Carchi) EQA sa FJ10dt 100 3884 2413 178
772119 2013-12-27 2020 10129.3 W0ERE Highlandville MO USA na EM36iw 1312 815 280
772148 2013-12-27 2007 332 DKA 'Kenan' Kenansville NC USA na FM15ab 25 101 62 137
772147 2013-12-27 1959 278 HFF 'Mackall' Camp Mackall NC USA na FM05ga 104 65 221
772146 2013-12-27 1958 261 ELQ Emporia VA USA na FM16go 149 92 48
772145 2013-12-27 1953 248 FRT 'Fairmont' Spartanburg SC USA na EM94av 400 309 192 253
772142 2013-12-27 1946 227 CPC 'Camp' Whiteville NC USA na FM04pg 25 162 101 180
772141 2013-12-27 1443 216 CLB Wilmington / Carolina Beach NC USA na FM14ac 193 120 159
772143 2013-12-27 1442 230 AQE 'Alwood' Greenville NC USA na FM15hq 120 75 91
772144 2013-12-27 1440 245 UDG Darlington SC USA na FM04bk 25 179 111 216
772138 2013-12-27 0640 260 LAT LATACUNGA EQA sa FI09qc 4072 2530 179
772170 2013-12-27 0640 260 TOY Tongoy (Coquimbo) CHL sa FF49gr 3000 7377 4584 173
772167 2013-12-27 0415 403 SV VCT ca FK93jd 3061 1902 140
772171 2013-12-27 0304 520 BHZ Belo Horizonte (MG) BRA sa GH80ad 1000 7182 4462 143
772135 2013-12-27 0203 272 GLS Galapagos GAL sa EI49un 4197 2607 199
772134 2013-12-26 0818 215 SGC Sao Gabriel da Cachoeira (AM) BRA sa FI69mu 4170 2591 160
772115 2013-12-26 0742 524 HRD 'Hardin County' Kountze / Silsbee TX USA na EM20ui 25 1568 974 252
772164 2013-12-26 0629 402 MQ Miquelon (Grande Miquelon) SPM na GN17tc 2238 1391 48
772132 2013-12-26 0605 386 SYF St. Francis KS USA na DM99cr 25 2072 1287 289
772159 2013-12-26 0605 376 ZIN Matthew Town / Great Inagua Island BAH ca FL30dx 400 1711 1063 162
772161 2013-12-26 0605 385 PTP Pointe a Pitre GDL ca FK96eg 2746 1706 137
772163 2013-12-26 0605 386 SP St. Pierre SPM na GN16vs 2234 1388 49
772166 2013-12-26 0605 382 TRI 'Piarco' Port of Spain TRD ca FK90go 1200 3291 2045 143
772173 2013-12-26 0417 274 SAL Sal Island / Amilcar Cabral CPV af HK86mq 3000 5865 3644 95
772113 2013-12-26 0304 350 RB Resolute Bay NU CAN na EQ24mr 3000 4422 2748 353
772133 2013-12-26 0129 388 PK 'Versi' parkersburg WV USA na EM99gg 462 287 329
772114 2013-12-25 2200 198 DIW Dixon NC USA na FM14gn 2000 172 107 138
772156 2013-12-25 1809 412 CTZ Clinton NC USA na FM04tx 25 89 55 159
772153 2013-12-25 1807 361 HB 'Himun' Burlington NC USA na FM05ex 87 54 288
772154 2013-12-25 1802 393 FGP Fort Bragg NC USA na FM05od 40 65 41 186
772151 2013-12-25 1758 271 HXO Huntsboro NC USA na FM06qh 25 65 41 6
772149 2013-12-25 1756 220 HUR Person NC USA na FM06lf 25 63 39 331
772152 2013-12-25 1753 338 POB 'Pope' Fayetteville NC USA na FM05mf 50 60 37 202
772150 2013-12-25 1752 263 JNX 'Jurly' Smithfield NC USA na FM05sl 36 22 140
772155 2013-12-25 1749 406 TT 'Leeco' Sanford NC USA na FM05kl 47 29 233
772157 2013-12-25 1747 417 HQT 'Harnett' Coats NC USA na FM05pk 25 32 20 180
758110 2013-11-24 1942 28177 HP1RCP Cerro Jefe PNR ca FJ09hd 3 2957 1837 181
758145 2013-11-24 1516 28298 SK7GH Bor SWE eu JO77bf 5 6895 4284 37
758124 2013-11-23 2204 28224.5 K5GJR Corpus Christi TX USA na EL17hr 5 1972 1225 248
758134 2013-11-23 2131 28250 K8NDB Yuma AZ USA na DM22qq 2 3302 2051 274
758144 2013-11-23 2116 28292 N5MAV Midland TX USA na DM82wa 2195 1364 265
758142 2013-11-23 2103 28286.5 W0ILO Sabin MN USA na EN16ov 7 1947 1210 315
758141 2013-11-23 2055 28280 K5AB Austin TX USA na EM10dh 20 1867 1160 256
758137 2013-11-23 1642 28254.5 K4JEE Louisville KY USA na EM78bd 5 691 429 295
758132 2013-11-23 1611 28245 DB0TEN Bomlitz DEU eu JO42uv 2 6823 4239 43
758131 2013-11-23 1604 28237.5 LA5TEN Oslo NOR eu JO59jp 10 6616 4111 35
758130 2013-11-23 1552 28236.5 W0KIZ Denver CO USA na DM79nj 5 2334 1450 287
758128 2013-11-23 1545 28231 F5ZEH Rennies FRA eu IN88va 6214 3861 51
758123 2013-11-23 1520 28222 TP2CE Strasbourg FRA eu JN38vo 6884 4277 48
758121 2013-11-23 1502 28220.5 YM7KK Giresun TUR as KN90iv 9370 5822 42
758120 2013-11-23 1450 28218 IQ5MS Carrara ITA eu JN54aa 7256 4508 52
758118 2013-11-23 1414 28215 GB3RAL Berkshire ENG eu IO91in 25 6164 3830 47
758117 2013-11-23 1410 28214 LA9TEN Snertingdal NOR eu JP50ev 6549 4069 34
758112 2013-11-23 1342 28188 OE3XAC Buschberg AUT eu JN78sb 10 7426 4614 46
758109 2013-11-23 1330 28173 IZ1EPM Turin ITA eu JN35wd 10 7047 4379 51
758143 2013-11-22 2212 28288 WA7LNW Hurricane UT USA na DM37ie 3080 1914 283
758126 2013-11-22 2145 28230 AA0RQ Pine CO USA na DM79ij 2369 1472 287
758119 2013-11-22 2126 28215 YV5LIX Caracas VEN sa FK60nm 3047 1893 154
758147 2013-11-22 2105 28203 PY2WFG Ipiranga BRA sa GG77ff 7381 4586 146
758133 2013-11-22 2054 28245 PU2KXC Jacarei BRA sa GG76aq 7414 4606 147
758146 2013-11-22 2048 28300 K6FRC Tracy CA USA na CM97 100 3748 2329 285
758108 2013-11-22 1628 28166 XE2O Allende MEX ca DL95ur 5 2336 1451 247
758111 2013-11-22 1623 28182 VY0SNO Iqaluit NU CAN na FP53rr 1 3189 1981 9
758114 2013-11-22 1555 28193 VE4ARM Austin MB CAN na EN09oe 5 2213 1375 318
758113 2013-11-22 1553 28193 LU2ERC Ensenada Radio Club ARG sa GF15ab 5 8147 5062 162
758115 2013-11-22 1530 28205 DL0IGI Hohenpeissenburg DEU eu JN57mt 50 7139 4436 48
758116 2013-11-22 1508 28211.8 AC7GZ Chandler AZ USA na DM43bh 3036 1886 274
758122 2013-11-22 1459 28223 KP3FT Ponce PR PTR ca FK68qa 4 2300 1429 145
758125 2013-11-22 1436 28226 IW3FZQ Rovigo ITA eu JN55vb 5 7327 4553 50
758127 2013-11-22 1420 28231 HP6RCP Santiago, Veraguas PNR ca EJ98mb 3085 1917 184
758129 2013-11-22 1405 28233.4 SV2AHT Hortiatis GRC eu KN10no 8373 5202 50
758136 2013-11-22 1355 28251.5 ED4YAK Henares ESP eu IN80fk 6396 3974 60
758138 2013-11-22 1345 28267.5 OH9TEN Pirttikoski FIN eu KP36oi 20 7064 4389 25
758139 2013-11-22 1339 28275 NP2SH St John VIR ca FK78se 5 2402 1492 140
758140 2013-11-22 1330 28276.5 XE2WK VICTORIA MEX ca EL03 2379 1478 240
758135 2013-11-22 1108 28251 WA4GEH Clayton NC USA na FM05tw 3.5 38 24 52
750774 2013-11-18 0631 190 TPN UnKnown XUN xx 400 400
748068 2013-11-09 0731 410 FOZ Foz do Iguacu (PR) BRA sa GG24rl 1020 1020 8.125 1000 7268 4516 156
748064 2013-11-09 0631 410 8502 ENSCO 8502 (Oil Rig) XON iw 1037 1035 8.175
748069 2013-11-09 0631 420 PTE Uribia, Portete Bay (La Guajira) CLM sa FK42af 1027 1013 4.838 2699 1677 163
748060 2013-11-08 0031 403 SV VCT ca FK93jd 1037 1038 8.329 3061 1902 140
748066 2013-11-06 0246 410 BKQ Stena Carron XOE iw 402 399 7.126
748067 2013-11-06 0246 410 BOR Seven Borealis / Subsea 7 XOE iw 406 398 6.336 18
748062 2013-11-05 0846 405 CON Concepcion PRG sa GG16gn 1024 1024 8.441 200 6948 4317 157
748065 2013-11-05 0846 410 5BPC2 WG Cook XON iw 414 73.49
745186 2013-11-05 0631 388 HAH 'Natchez-Adams Co' Natchez MS USA na EM41iq 1022 8.6 1246 774 252
745187 2013-11-05 0631 390 URV Varder CUB ca EL93ga 1180 1258 7.057 1438 893 191
748058 2013-11-05 0631 396 CQB 'Tilghman' Chandler OK USA na EM15or 999 5.833 1630 1013 275
748059 2013-11-05 0616 402 UIA Camaguey CUB ca FL11bj 1120 1120 3.578 1596 992 176
748061 2013-11-05 0616 404 SG 'Coole' Springfield MO USA na EM37ge 1058 5.498 1328 825 281
748063 2013-11-05 0446 405 MAS Macas EQA sa FI07wq 1022 1018 5.335 4230 2628 179
745184 2013-11-03 0601 375 CUB Corumba (MS) BRA sa GH10ex 1016 6.5 6480 4026 156
745185 2013-11-02 0631 377 EHA Elkhart KS USA na DM97ba 1024 4.564 50 2074 1289 280
745183 2013-11-02 0546 375 BD Baildon (Moose Jaw) SK CAN na DO70gh 1005 10.007 2688 1670 315
745176 2013-10-31 1101 360 GP 'Bayou' Gulfport MS USA na EM50kl 1019 1023 8.6 1131 703 241
745178 2013-10-30 0931 365 JA 'Allen' Jackson MS USA na EM42wj 1044 1015 5.639 1114 692 253
745181 2013-10-30 0846 371 HNO Henderson TX USA na EM22ne 1022 7.827 1540 957 259
745182 2013-10-30 0846 371 SOA Sonora TX USA na DM90qn 1022 7.684 25 2115 1314 260
745177 2013-10-30 0631 360 UCV CIEGO DE AVILA CUB ca FL02oa 1399 1402 8.073 1524 947 180
745179 2013-10-30 0616 367 PRI 'Perrine' Farmington MO USA na EM47ss 1023 1022 5.535 1070 665 285
745180 2013-10-30 0616 370 HYW 'Horry' Conway SC USA na FM03kt 1016 1015 7.045 25 216 135 190
741995 2013-10-28 1122 260 ST 'Tario' Saint Joseph MO USA na EM29nq 1040 5.006 25 1486 923 292
742021 2013-10-28 1122 266 HBV Hebbronville TX USA na EL07pi 1000 6.714 2106 1309 249
742052 2013-10-28 0916 475 WD2XSH/12 Nederland CO USA na DM79gx 2 98.753 2386 1483 289
742008 2013-10-28 0851 263 JDN Jordan MT USA na DN67mh -41 6.806 2660 1653 307
741988 2013-10-28 0822 260 CL 'Rowdy' College Station TX USA na EM10tl 1055 6.037 1743 1083 255
742050 2013-10-28 0822 269 YK 'Brilliant' Castlegar BC CAN na DN19eh 406 10.267 3479 2161 307
742027 2013-10-28 0751 266 VR Vancouver BC CAN na CN89le 403 10.355 50 3866 2402 306
742035 2013-10-28 0751 268 ZWL Wollaston Lake SK CAN na DO88jc 404 10.168 1000 3070 1908 331
742040 2013-10-28 0751 269 CII Choteau MT USA na DN37vt 1042 1038 7.931 3054 1897 306
742046 2013-10-28 0751 269 PK 'Spida' Park Rapids MN USA na EN26mu 1044 6.055 25 1830 1137 317
742002 2013-10-28 0651 263 3Z Russell MB CAN na DO90is 393 10.247 2460 1528 319
741986 2013-10-28 0621 260 AP 'Casse' Denver CO USA na DM79nk 1048 1023 6.156 100 2334 1450 288
741991 2013-10-28 0621 260 JYG St James MN USA na EN23rx 1019 30.005 25 1629 1012 309
741996 2013-10-28 0621 260 TOY Tongoy (Coquimbo) CHL sa FF49gr 1023 1032 8.518 3000 7377 4584 173
742017 2013-10-28 0621 264 HN 'Suybe' Shawnee OK USA na EM15mk 844 843 3.656 25 1648 1024 274
742036 2013-10-28 0621 269 3C Venture Drilling Platform NL CAN na GN04ga 1027 1024 8.323 126 1877 1166 54
742041 2013-10-28 0551 269 FN 'Petli' Flint MI USA na EN82bx 1030 1033 6.016 920 572 332
741998 2013-10-28 0521 260 YSQ Atlin BC CAN na CO39dp 404 10.149 4707 2925 322
742033 2013-10-28 0151 267 HET Henryetta OK USA na EM15xj 1027 1024 4.471 25 1566 973 273
742044 2013-10-28 0151 269 LRT Lawrenceburg TN USA na EM65if 1022 3.662 779 484 268
742054 2013-10-27 0735 477.9 WD2XSH/31 Rutland (Forest) VA USA na FN33lo -1 43.246 1000 622 27
742053 2013-10-27 0035 477.6 WD2XSH/38 Charlestown NH USA na FN33sg -1 40.96 995 618 30
742070 2013-10-27 0029 521 RPK Middlesboro-Bell KY USA na EM86do 1008 1005 6.564 25 459 285 283
742071 2013-10-26 1120 521 TO 'Biloy' Topeka KS USA na EM29dc 1083 994 5.895 25 1545 960 289
742015 2013-10-26 1102 263 ZQT 'Superior' Thunder Bay ON CAN na EN58jj 396 9.743 50 1650 1025 331
742048 2013-10-26 1102 269 TII Tiffin OH USA na EN81jc 1009 4.349 714 444 328
742011 2013-10-26 1002 263 MOQ 'Mc Intosh' Fort Stewart GA USA na EM91ft 1031 1028 8.004 508 316 211
742019 2013-10-26 0932 264 ON Winona MN USA na EN44ea 1054 1051 8.245 1434 891 313
742066 2013-10-26 0920 521 DWH 'David Hooks' Houston TX USA na EM20fd 1009 6.058 1686 1048 253
742051 2013-10-26 0913 440 CHE Chitre PNR ca EJ97tx 1012 994 5.464 3090 1920 183
742016 2013-10-26 0801 264 AQ Barranguilla CLM sa FK20ou 1032 8.484 2794 1736 170
742018 2013-10-26 0801 264 JUY 'Judd' Andelusia AL USA na EM61th 1034 1033 8.343 25 863 536 237
742065 2013-10-26 0649 520 F9 Chatham (Miramichi) NB CAN na FN77ga 401 10.566 123 1668 1037 37
742067 2013-10-26 0649 521 GM 'Judky' Greenville SC USA na EM84ts 1081 992 6.123 350 217 253
742072 2013-10-26 0649 523 JJH Johnstown NY USA na FN22ux 1026 1042 5.73 25 891 553 23
742057 2013-10-26 0637 510 OF 'Carsy' Norfolk NE USA na EN11gv 1076 988 7.395 1758 1093 298
742058 2013-10-26 0637 512 HMY 'Muldrow' Lexington OK USA na EM15ja 1075 998 7.832 25 1677 1042 272
742059 2013-10-26 0637 515 OS 'Fuler' Columbus OH USA na EN80jb 1025 1015 8.6 25 623 387 322
742062 2013-10-26 0637 516 YWA Petawawa ON CAN na FN15iv 1003 8.177 25 1137 706 5
742063 2013-10-26 0637 517 FN 'Hillz' Clinton IA USA na EN41ts 1081 6.061 1213 753 307
742020 2013-10-26 0631 264 ZPB Sachigo Lake ON CAN na EO33vv 390 10.495 50 2275 1413 336
742023 2013-10-26 0631 266 IT 'Vrnah' Ithaca NY USA na FN12tk 1015 1016 6.372 773 480 14
742039 2013-10-26 0631 269 BEX Bloomfield IA USA na EN30sr 1002 1001 5.977 25 1321 821 298
742068 2013-10-26 0619 521 INE 'Konna' Missoula MT USA na DN27tc 1075 998 8.055 400 3197 1986 304
742069 2013-10-26 0619 521 ORC Orange City IA USA na EN12xx 1026 1027 6.992 25 1690 1050 303
741987 2013-10-26 0601 260 BVQ 'Beaver Creek' Glasgow KY USA na EM67xa 1026 1034 6.968 25 672 417 284
741993 2013-10-26 0601 260 MTH Marathon FL USA na EL94kr 1039 1034 6.89 100 1245 773 191
741994 2013-10-26 0601 260 SNE Santa Elena TX USA na EL06rr 948 5.139 2129 1323 247
741997 2013-10-26 0601 260 UFX St. Felix de Valois QC CAN na FN36ge 366 10.36 25 1243 772 19
741999 2013-10-26 0601 261 2H Lebel-sur-Quevillon QC CAN na FN19la 404 406 9.049 125 1484 922 4
742003 2013-10-26 0601 263 BGF 'Boiling Fork' Winchester TN USA na EM65xe 1035 1035 4.701 25 667 414 266
742004 2013-10-26 0601 263 CVM 'Civic Memorial' Alton IL USA na EM48xv 1015 1027 7.513 1061 659 292
742005 2013-10-26 0601 263 DYQ 'Dulaney' Greenville TN USA na EM86nd 1025 1027 7.303 25 378 235 278
742006 2013-10-26 0601 263 ECY Eunice LA USA na EM30sn 1034 1036 7.778 25 1401 871 249
742007 2013-10-26 0601 263 GR 'Knobs' Grand Rapids MI USA na EN72hv 1035 1021 5.983 981 610 326
742012 2013-10-26 0601 263 QY Sydney NS CAN na GN06af 402 10.263 500 1951 1212 47
742022 2013-10-26 0601 266 IN 'Pully' Indianapolis IN USA na EM69sp 1045 1038 6.17 25 809 502 304
742025 2013-10-26 0601 266 PYX Perryton TX USA na DM96pj 1021 6.525 25 1974 1227 278
742028 2013-10-26 0601 266 XD Edmonton AB CAN na DO33fp 400 10.376 3345 2078 317
742029 2013-10-26 0601 266 YFH Fort Hope ON CAN na EO61bn 410 10.076 200 1905 1184 340
742030 2013-10-26 0601 266 YZX Greenwood NS CAN na FN74kw 1033 1014 8.433 400 1537 955 44
742031 2013-10-26 0601 266 ZHM Hamilton (Binbrook) ON CAN na FN03cd 384 10.353 50 830 516 353
742032 2013-10-26 0601 266 ZMM 'Mirabel' Colomban (Montreal) QC CAN na FN25vq 349 10.403 20 1170 727 17
742034 2013-10-26 0601 268 UBY Bayamo (Granma) CUB ca FL10qj 1 6.245 50 1717 1067 172
742037 2013-10-26 0601 269 AHX Athens TX USA na EM22cd 1014 4.852 25 1623 1008 260
742042 2013-10-26 0601 269 GN 'Wynds' Gainesville FL USA na EL89vq 1038 1037 6.213 25 747 464 206
742047 2013-10-26 0601 269 SWT Seward NE USA na EN10ku 1021 8.137 25 1701 1057 295
742049 2013-10-26 0601 269 UDE Delta MB CAN na EO00ud 392 10.661 50 2247 1396 321
742055 2013-10-26 0555 492 E8 Natuashish / Davis Inlet NL CAN na FO95jv 406 8.406 2604 1618 25
742064 2013-10-26 0549 520 BHZ Belo Horizonte (MG) BRA sa GH80ad 1018 1010 7.028 1000 7182 4462 143
742061 2013-10-26 0537 515 SAK 'Smith Lake' Kalispell MT USA na DN28sc 1083 8.215 25 3224 2003 306
742010 2013-10-26 0401 263 LQL 'Lakeland' Willoughby OH USA na EN91hq 1017 1013 5.859 25 702 436 341
741990 2013-10-26 0331 260 JH 'Brenz' Jackson MS USA na EM42uj 1033 1025 6.138 1129 701 254
742060 2013-10-26 0307 515 PN 'Ponca' Ponca City OK USA na EM16kt 1026 1015 8.6 25 1653 1027 279
741992 2013-10-26 0301 260 LAT LATACUNGA EQA sa FI09qc 1021 5.335 4072 2530 179
742013 2013-10-26 0301 263 RO Rogers AR USA na EM26xl 1003 6.109 1379 857 277
742026 2013-10-26 0301 266 TM Tamiami Executive Airport, Miami FL USA na EL95rp 1042 1034 6.414 1135 705 189
742056 2013-10-26 0237 507.4 WE2XGR/1 Burlington (HARTFORD) CT USA na FN31ls 0 51.285 832 517 34
742024 2013-10-26 0231 266 LLN Levelland TX USA na DM83tn 1022 4.778 2173 1350 270
742038 2013-10-26 0201 269 AR 'Acadi' New Iberia LA USA na EL49bw 1038 1036 5.868 25 1387 862 246
742043 2013-10-26 0201 269 LOR 'Lowe' Fort Rucker (Ozark) AL USA na EM71di 1036 1036 7.785 810 504 235
742073 2013-10-26 0119 524 HRD 'Hardin County' Kountze / Silsbee TX USA na EM20ui 1046 1027 5.719 25 1568 974 252
742014 2013-10-25 1701 263 YGK Kingston ON CAN na FN14qh 401 399 10.124 1000 971 603 9
741989 2013-10-25 1601 260 GHJ 'Stonia' Gastonia NC USA na EM95ke 995 5.537 227 141 255
742000 2013-10-25 1601 261 ELQ Emporia VA USA na FM16go 992 1017 5.928 149 92 48
742001 2013-10-25 1601 261 OA 'Ellas' Jacksonville NC USA na FM14ds 1033 1033 5.649 140 87 139
742009 2013-10-25 1601 263 JNX 'Jurly' Smithfield NC USA na FM05sl 1023 1024 4.988 36 22 140
742045 2013-10-25 1601 269 MRH 'Morehead' Beaufort NC USA na FM14qr 1010 1012 7.357 25 219 136 119
738068 2013-10-23 0631 359 FXY Forest City IA USA na EN33ef 1017 7.772 25 1524 947 307
738067 2013-10-21 0901 356 SJ 'Woole' San Angelo TX USA na DM91rg 1051 1019 6.322 2079 1292 262
738064 2013-10-21 0831 350 LF 'Flufy' Lufkin TX USA na EM21of 1053 1036 6.056 1571 976 256
738065 2013-10-21 0616 353 CY 'Horse' Cheyenne WY USA na DN71pd 1028 5.958 2333 1450 292
738063 2013-10-21 0601 350 CBG Cambridge MN USA na EN35in 1039 1029 8.034 1641 1020 316
738062 2013-10-21 0246 349 ER 'Esmer' Erie PA USA na EN92ua 1023 5.932 713 443 349
738066 2013-10-20 0401 356 AQP Appleton MN USA na EN15xf 1044 1005 6.629 1801 1119 311
738061 2013-10-16 1101 320 3FPA Unknown XUN xx 404 8.156
736333 2013-10-14 0101 299 VV 'CAMOR' Uniontown PA USA na FM09dv 472 293 349
736331 2013-10-14 0016 299 HW 'Cubla' Wilmington OH USA na EM89bi 608 378 313
736330 2013-10-13 0501 287 ULV Santa Clara CUB ca FL02al 1478 918 185
736332 2013-10-13 0046 299 VV 'CAMOR' Uniontown PA USA na FM09dv 472 293 349
735764 2013-10-09 0500 260 LAT LATACUNGA EQA sa FI09qc 1021 5.335 4072 2530 179
735767 2013-10-09 0500 264 AQ Barranguilla CLM sa FK20ou 1031 8.481 2794 1736 170
735768 2013-10-09 0430 266 TM Tamiami Executive Airport, Miami FL USA na EL95rp 1043 1035 6.415 1135 705 189
735765 2013-10-08 0700 263 LQL 'Lakeland' Willoughby OH USA na EN91hq 1007 5.864 25 702 436 341
735766 2013-10-08 0700 263 MOQ 'Mc Intosh' Fort Stewart GA USA na EM91ft 1033 7.992 508 316 211
735763 2013-10-07 0700 257 ETC Tarboro NC USA na FM15fw 1018 1023 5.574 108 67 77
735762 2013-10-05 0700 244 USM Manzanillo CUB ca FL10kh 1042 9.973 1721 1069 174
733469 2013-09-30 1112 233 OKS Oshkosh NE USA na DN81tj 16 6.99 25 2144 1332 294
733476 2013-09-30 1112 236 GY 'Garie' Gary IN USA na EN61in 1028 8.6 987 613 313
733388 2013-09-30 1036 206 AP 'Felps' Alpena MI USA na EN84fx 1021 8.601 1106 688 339
733484 2013-09-30 1036 239 PWY Hebbronville TX USA na EL07qk 1015 1021 6.906 2094 1301 249
733467 2013-09-30 0812 233 BR Brandon MB CAN na DN99xv 379 10.216 25 2332 1449 319
733435 2013-09-30 0400 223 YKA Kamloops BC CAN na CO90tq 408 10.363 500 3700 2299 309
733373 2013-09-30 0236 201 GL La Grande Riviere QC CAN na FO13dp 405 10.29 500 1994 1239 1
733460 2013-09-30 0212 230 YBM St Bruno de Guigues QC CAN na FN07gk 383 10.236 25 1303 810 357
733474 2013-09-30 0212 236 4L Chatham ON CAN na EN82xh 388 8.185 50 786 489 339
733423 2013-09-30 0100 220 FZ Syracuse NY USA na FN13wc 397 5.087 849 528 14
733410 2013-09-30 0048 216 ME Matane QC CAN na FN68ft 410 10.062 100 1716 1067 28
733419 2013-09-30 0048 219 W7 'Pabok' Du Rocher-Percé QC CAN na FN78rj 412 8.185 1824 1134 35
733451 2013-09-30 0036 230 AC Pleasant Lake (Yarmouth) NS CAN na FN63xu 389 10.504 1407 874 46
733371 2013-09-29 1102 200 UAB Anahim Lake BC CAN na CO72jj 409 10.278 1000 4061 2523 311
733449 2013-09-29 1050 227 TNZ 'Lawrence Co.' Walnut Ridge AR USA na EM46me 1031 6.05 25 1103 685 276
733458 2013-09-29 1038 230 VG Vermilion AB CAN na DO43oi 409 10.684 700 3166 1967 318
733461 2013-09-29 1038 230 ZUC Ignace ON CAN na EN49dk 400 10.383 50 1853 1151 329
733483 2013-09-29 1038 239 OJ High Level AB CAN na DO18kn 408 10.119 350 3770 2342 324
733413 2013-09-29 1026 218 AL 'Alpos' Alton (St Louis MO) IL USA na EM58au 1019 8.6 1053 654 292
733420 2013-09-29 1026 219 YMG Manitouwadge ON CAN na EN79bb 403 10.391 100 1593 990 340
733427 2013-09-29 1026 221 ARV 'Arbor Vitae' Minocqua (Woodruff) WI USA na EN55dw 1003 5.459 75 1462 908 324
733431 2013-09-29 1026 221 HM Hamilton (Carluke) ON CAN na EN93xc 375 10.486 25 828 514 352
733436 2013-09-29 1026 223 YYW Armstrong ON CAN na EO50lh 406 10.519 100 1822 1132 336
733406 2013-09-29 1014 212 YGX Gillam MB CAN na EO26pi 411 10.258 2590 1609 337
733411 2013-09-29 1014 216 YFA Fort Albany ON CAN na EO92de 402 10.472 200 1845 1147 353
733372 2013-09-29 1002 200 YAQ Kasabonika ON CAN na EO53qm 380 10.166 50 2123 1319 341
733472 2013-09-29 0938 235 9H La Grande 3 QC CAN na FO13vn 386 9.891 250 1992 1238 4
733425 2013-09-29 0425 220 IHM Mansfield MA USA na FN42ja 974 4.89 954 593 40
733441 2013-09-29 0325 224 QM Moncton NB CAN na FN76rc 404 10.244 400 1653 1027 41
733407 2013-09-29 0313 213 YRC 'St. Honore' Chicoutimi QC CAN na FN48km 392 10.468 25 1552 964 21
733466 2013-09-29 0137 233 AZN 'Amazon' St. Joseph MO USA na EM29nv 394 6.826 25 1491 927 292
733439 2013-09-29 0125 224 II 'Fichy' Sturgeon Bay WI USA na EN64gs 1035 4.744 1248 776 326
733455 2013-09-28 1049 230 NRN Norton KS USA na EM09bu 1029 5.202 25 1911 1187 290
733438 2013-09-28 1037 224 DN Dauphin MB CAN na DO91xc 386 10.209 25 2410 1498 321
733394 2013-09-28 1025 208 YSK Sanikiluaq NU CAN na FO06jm 410 10.215 400 2312 1437 359
733397 2013-09-28 1025 209 IB Atikokan ON CAN na EN48ft 405 10.214 250 1792 1114 328
733457 2013-09-28 1025 230 ULC Cayo Largo Sur CUB ca EL91fo 1034 1048 9.001 1594 991 190
733426 2013-09-28 1013 220 UFP Holguin CUB ca FL10us 1021 8.625 1680 1044 171
733402 2013-09-28 1001 212 CFV Coffeyville KS USA na EM27fc 1021 5.627 25 1512 939 280
733464 2013-09-28 0913 232 GT 'Grand Turk' Cockburn Town (Grand Turk Island) TCA ca FL41kk 1041 1041 7.026 1752 1088 153
733432 2013-09-28 0813 221 HYE 'Hanchey' Fort Rucker (Ozark) AL USA na EM71ei 1040 8.847 804 500 234
733416 2013-09-28 0749 219 AWG Washington IA USA na EN41dg 1023 1021 5.324 1286 799 302
733486 2013-09-28 0701 381.5 SJX 'St James' Beaver Island MI USA na EN75fq 1028 7.475 25 1247 775 334
733456 2013-09-28 0649 230 QB Quebec QC CAN na FN46gr 405 10.404 200 1364 847 24
733470 2013-09-28 0649 233 QN Nakina ON CAN na EO60qe 408 10.119 400 1729 1075 340
733471 2013-09-28 0649 233 UM Churchill Falls NL CAN na FO73vo 408 10.382 2285 1419 25
733473 2013-09-28 0649 235 CN Cochrane ON CAN na EN99mb 410 10.312 100 1494 928 353
733477 2013-09-28 0649 236 OW Ramsayville (Ottawa) ON CAN na FN25fi 408 10.323 60 1103 685 13
733417 2013-09-28 0637 219 AY 'Wiket' Waycross GA USA na EM81th 1037 1028 6.008 597 371 215
733421 2013-09-28 0637 220 BX Blanc Sablon / Lourdes de Blanc Sablon QC CAN na GO11jk 402 10.608 2000 2442 1517 37
733429 2013-09-28 0637 221 BO 'Booie' Bristol (Johnston-Kingsport) TN USA na EM86sj 1044 1039 7.889 345 214 283
733430 2013-09-28 0637 221 FX 'Praiz' Fort Lauderdale FL USA na EL96ue 379 373 6.153 1072 666 188
733433 2013-09-28 0637 223 DAA 'Davee' Fort Belvoir MD USA na FM18kp 1040 1027 8.9 353 220 22
733437 2013-09-28 0637 224 BH 'Mc Den' Birmingham AL USA na EM63nm 1033 6.093 400 786 489 254
733440 2013-09-28 0637 224 MO Moosonee ON CAN na EO91qg 406 10.306 400 1735 1078 355
733444 2013-09-28 0637 227 AB 'Putny' Albany GA USA na EM71uk 1036 1036 5.885 703 437 228
733395 2013-09-28 0625 209 ANG Wallblake AIA ca 1018 1008 8.466
733396 2013-09-28 0625 209 HOE Homerville GA USA na EM81ob 1020 1020 5.429 25 642 399 217
733404 2013-09-28 0625 212 SJ Saint John NB CAN na FN75cj 409 10.181 1000 1528 949 41
733412 2013-09-28 0625 217 HZD Huntingdon TN USA na EM56sc 1002 5.155 879 546 275
733414 2013-09-28 0625 218 RL Red Lake ON CAN na EO31cb 411 10.25 1000 2087 1297 329
733415 2013-09-28 0625 218 YUY Rouyn QC CAN na FN08me 409 10.691 500 1385 861 359
733374 2013-09-28 0613 201 GV 'Major' Greenville TX USA na EM13xd 5.375 25 1613 1002 264
733378 2013-09-28 0613 203 DMZ Dickson TN USA na EM66gd 1025 5.853 25 789 490 275
733390 2013-09-28 0613 206 VNC Venice FL USA na EL87sb 382 372 8.064 25 1027 638 201
733485 2013-09-28 0601 347.5 ANQ Angola IN USA na EN71kp 1027 1019 5.934 25 861 535 321
733405 2013-09-28 0537 212 UC 'Obion' Union City TN USA na EM56mh 1034 6.039 25 924 574 277
733475 2013-09-28 0537 236 BW 'Noora' Bowling Green KY USA na EM36fv 1018 1022 8.601 1334 829 279
733459 2013-09-28 0525 230 VQ 'Cargl' Detroit MI USA na EN82mi 1020 8.6 25 823 511 334
733400 2013-09-28 0513 210 IOB Mount Sterling KY USA na EM88ab 1021 8.6 49 534 332 300
733401 2013-09-28 0513 211 AN 'Bogga' Anniston AL USA na EM73am 1046 7.814 25 707 439 251
733391 2013-09-28 0501 205 XZ Wawa ON CAN na EN78pa 405 10.481 125 1453 903 341
733454 2013-09-28 0449 230 BU 'Boutn' Columbus OH USA na EM89jt 1028 1023 8.194 602 374 320
733462 2013-09-28 0449 232 CO 'Colfa' Indianapolis IN USA na EM69vp 1020 8.6 790 491 305
733480 2013-09-28 0425 239 CFX Cadiz OH USA na EN90lf 1039 1035 7.787 25 540 336 338
733377 2013-09-28 0413 201 ZXU 'Thames' London ON CAN na EN92kx 396 10.472 832 517 346
733434 2013-09-28 0413 223 MW 'Onida' Franklin OH USA na EM79un 1035 4.338 650 404 312
733446 2013-09-28 0413 227 GW 'Aubon' De Kalb County, Auburn IN USA na EN71mh 1037 1034 7.913 25 825 512 320
733393 2013-09-28 0349 207 FD Brantford ON CAN na EN93tb 391 10.5 828 514 350
733418 2013-09-28 0325 219 CX 'Latle' Harrisburg PA USA na FN10le 1038 6.062 517 321 15
733408 2013-09-28 0313 215 YTR Trenton ON CAN na FN14he 1037 8.618 25 947 589 6
733468 2013-09-28 0313 233 HEM 'Huchn' Sparta TN USA na EM75ex 1022 1021 4.999 25 624 388 274
733478 2013-09-28 0313 236 VJ 'Whine' Abingdon VA USA na EM96ar 1011 5.231 312 194 291
733382 2013-09-28 0301 204 YFY Forbay - Iqaluit NU CAN na FP53rr 400 10.231 1500 3189 1981 9
733389 2013-09-28 0301 206 QI Yarmouth NS CAN na FN63wt 409 10.442 500 1399 869 46
733442 2013-09-28 0301 225 BRL Barcelos (AM) BRA sa FI89ma 1021 1019 8.125 4396 2731 154
733447 2013-09-28 0301 227 SZO 'Sebago' Fryeburg ME USA na FN43ov 1028 8.055 25 1131 703 34
733448 2013-09-28 0301 227 TAN Taunton MA USA na FN41lv 1012 5.271 954 593 41
733398 2013-09-28 0249 209 MT 'Chiboo' Chibougamau (Chapais) QC CAN na FN29st 405 10.255 500 1603 996 11
733380 2013-09-28 0237 204 MD 'Enola' Harrisburg PA USA na FN10nf 1038 6.004 525 326 17
733385 2013-09-28 0237 205 ORE Orange MA USA na FN32un 1031 5.392 25 939 584 34
733387 2013-09-28 0237 205 YRQ Trois Rivieres QC CAN na FN36qi 392 10.535 25 1286 799 21
733463 2013-09-28 0200 232 GP Gaspe QC CAN na FN78ts 404 10.362 400 1863 1157 34
733465 2013-09-28 0200 233 AG 'Bushe' Augusta GA USA na EM93ag 1041 1042 6.045 404 251 228
733375 2013-09-28 0149 201 RI Riviere Du Loup QC CAN na FN57fs 405 10.001 200 1537 955 26
733376 2013-09-28 0149 201 YKX Kirkland Lake ON CAN na FN08bf 406 10.13 200 1393 866 356
733392 2013-09-28 0149 207 CL Charlo NB CAN na FN68sa 403 10.431 1000 1697 1055 32
733399 2013-09-28 0136 209 SYS 'Stoystown' Somerset PA USA na FN00nc 1020 6.245 25 487 302 358
733403 2013-09-28 0048 212 MPZ Mt. Pleasant IA USA na EN40fw 1018 5.459 25 1258 782 301
733482 2013-09-28 0048 239 HKF 'Hook Field' Middletown OH USA na EM79sl 1018 5.997 25 656 407 311
733379 2013-09-28 0036 204 ESU 'Summerdale' Foley AL USA na EM60dl 1025 5.034 25 1021 634 237
733452 2013-09-27 1636 230 AQE 'Alwood' Greenville NC USA na FM15hq 1041 1032 8.126 120 75 91
733453 2013-09-27 1636 230 BES Bennettsville SC USA na FM04do 1007 4.941 155 96 216
733479 2013-09-27 1636 237 EZF 'Shannon' Fredericksburg VA USA na FM18gg 1010 4.734 25 304 189 21
733481 2013-09-27 1636 239 GIW 'Coronaca' Greenwood SC USA na EM84wg 1028 1008 5.36 25 351 218 243
733422 2013-09-27 1624 220 DCM Chester SC USA na EM94js 1012 6.084 251 156 245
733424 2013-09-27 1624 220 HUR Person NC USA na FM06lf 1037 1035 8.057 25 63 39 331
733428 2013-09-27 1624 221 BJT 'Bulldog' Athens GA USA na EM83jw 1016 1017 6.894 25 456 284 245
733443 2013-09-27 1624 226 FAF 'Felker' Fort Eustis VA USA na FM17qd 1031 1020 8.734 244 152 49
733445 2013-09-27 1624 227 CPC 'Camp' Whiteville NC USA na FM04pg 1028 1021 8.381 25 162 101 180
733450 2013-09-27 1624 227 UZ 'Rally' Rock Hill SC USA na EM94lv 1036 5.877 25 231 144 247
733409 2013-09-27 1612 216 CLB Wilmington / Carolina Beach NC USA na FM14ac 1011 1014 10.141 193 120 159
733370 2013-09-27 1600 198 DIW Dixon NC USA na FM14gn 1045 1035 10.1 2000 172 107 138
733381 2013-09-27 1600 204 TWL 'Wesley' Monroe NC USA na EM94pw 1015 1016 5.673 25 202 125 244
733383 2013-09-27 1600 205 GM 'Wilze' Wilmington NC USA na FM14ci 1041 1038 5.838 174 108 151
733384 2013-09-27 1600 205 LNH Millen GA USA na EM92av 1020 1019 5.788 25 434 270 224
723295 2013-08-26 1026 375 PSN Palestine TX USA na EM21ds 1013 6.668 25 1630 1013 259
723298 2013-08-26 1026 375 SPH Springhill LA USA na EM32hw 1045 1024 7.815 25 1380 858 261
723302 2013-08-25 1035 377 BUB Burwell NE USA na EN01ks 1005 6.785 1888 1173 297
723316 2013-08-25 1035 380 OEL Oakley KS USA na DM99oc 1021 6.232 25 1981 1231 287
723329 2013-08-25 0951 382 PCZ Waupaca WI USA na EN54lh 1025 1028 7.256 25 1296 805 320
723276 2013-08-25 0920 370 YBV Berens River MB CAN na EO12li 372 10.448 25 2345 1457 327
723311 2013-08-25 0735 379 RUE Russellville AR USA na EM35kg 1012 5.734 25 1305 811 271
723334 2013-08-25 0735 383 CNP Chappell NE USA na DN81sb 1019 6.49 25 2145 1333 293
723291 2013-08-25 0720 375 DS Searcy AR USA na EM45cc 1039 1040 5.799 25 1187 737 270
723308 2013-08-25 0635 379 LRR 'Allen Parish' Oakdale LA USA na EM30pp 1043 1025 7.931 1418 881 250
723304 2013-08-25 0605 378 HO Hopedale NL CAN na FO95vk 410 10.4 2604 1618 26
723313 2013-08-25 0605 379 UNE 'Union County' Creston IA USA na EN20tw 1023 1026 4.238 1481 920 297
723297 2013-08-25 0550 375 SH 'Staut' Staunton / Waynesboro / Harrisonburg VA USA na FM08me 1021 1019 8.6 274 170 355
723280 2013-08-25 0536 371 MLE 'Millard' Omaha NE USA na EN11we 1033 5.808 1630 1013 297
723310 2013-08-25 0535 379 OW 'Tonna' Owatonna MN USA na EN34kb 1055 1027 6.084 25 1536 954 311
723282 2013-08-25 0520 371 RYV 'Rock River' Watertown WI USA na EN53pe 1009 1011 6.738 25 1192 741 317
723312 2013-08-25 0505 379 UG 'Wauke' Waukegan (Chicago) IL USA na EN62cl 1016 8.6 25 1084 673 316
723324 2013-08-25 0505 382 BT 'Herro' Burlington VT USA na FN34jm 396 397 6.023 1083 673 23
723331 2013-08-25 0505 382 TRI 'Piarco' Port of Spain TRD ca FK90go 1021 8.125 1200 3291 2045 143
723290 2013-08-25 0450 375 BO 'Miltt' Boston MA USA na FN42lg 1046 5.995 983 611 39
723307 2013-08-25 0435 379 IVV 'White River' Lebanon (Hartland, VT) NH USA na FN33sn 1036 8.294 25 1021 635 29
723325 2013-08-25 0351 382 DER Alexander City AL USA na EM72av 1016 4.308 25 736 458 246
723274 2013-08-24 1016 370 OUN Norman OK USA na EM15gf 1038 1025 7.875 1696 1054 273
723277 2013-08-24 0930 371 AZ 'Austn' Vicksburg MI USA na EN72fd 1057 1025 6.01 926 575 322
723279 2013-08-24 0916 371 GW Jarpik Kuujjuarapik QC CAN na FO15cg 405 10.246 500 2174 1351 1
723305 2013-08-24 0901 378 RJ Roberval QC CAN na FN38un 401 10.219 500 1520 945 18
723321 2013-08-24 0901 382 7P Iroquois Falls ON CAN na EN98pr 1017 8.87 100 1455 904 354
723330 2013-08-24 0901 382 SP 'Huskk' Springfield IL USA na EM59cs 1047 1022 6.157 25 1072 666 298
723293 2013-08-24 0846 375 LQ 'Licol' Springfield IL USA na EM59ev 1056 1041 6.103 1064 661 299
723315 2013-08-24 0845 380 BBD Brady TX USA na EM01ie 1019 6.467 25 1971 1225 261
723328 2013-08-24 0831 382 MW 'Jonny' Marion IL USA na EM57mu 1022 8.6 25 942 585 287
723300 2013-08-24 0716 376 YAG Fort Frances ON CAN na EN38fq 396 9.946 40 1882 1169 324
723320 2013-08-24 0701 381.5 SJX 'St James' Beaver Island MI USA na EN75fq 1028 7.432 25 1247 775 334
723326 2013-08-24 0631 382 IRS Sturgis MI USA na EN71gt 1019 6.59 25 894 555 321
723327 2013-08-24 0631 382 LQ 'Lyndy' Boston MA USA na FN42mk 1016 1018 5.425 1001 622 39
723332 2013-08-24 0601 382 XU London ON CAN na EN93jc 389 10.241 50 848 527 346
723333 2013-08-24 0601 382 YPL Pickle Lake ON CAN na EO41vk 406 9.893 500 1972 1225 335
723288 2013-08-24 0600 373 YXK Rimouski QC CAN na FN58rl 389 10.572 25 1644 1021 27
723303 2013-08-24 0545 377 YRR Greely (Ottawa) ON CAN na FN25fg 391 10.444 25 1094 680 13
723275 2013-08-24 0530 370 UMC Camaguey CUB ca FL11aj 1043 1053 9.015 1595 991 177
723286 2013-08-24 0516 373 2Q Mont-Laurier QC CAN na FN26go 409 410 8.13 25 1239 770 11
723289 2013-08-24 0516 375 7B St Thomas ON CAN na EN92ks 397 10.199 25 810 503 345
723317 2013-08-24 0515 380 UCY 'Cayabo' Cayajabos (Pinar dal Rio) CUB ca EL82nu 868 866 8.845 100 1487 924 196
723318 2013-08-24 0515 380 UMB 'Culvr' Milledgeville GA USA na EM83kd 1026 1005 5.446 25 496 308 235
723322 2013-08-24 0515 382 APT Jasper TN USA na EM75eb 987 1019 7.713 25 631 392 265
723314 2013-08-24 0501 379 YPQ Peterborough ON CAN na FN04sf 391 10.445 25 945 587 1
723278 2013-08-24 0500 371 FQW 'Walter Hill' Murfreesboro TN USA na EM65tx 1022 1013 6.753 25 691 430 274
723281 2013-08-24 0500 371 PUR Marshall MO USA na EM39jb 1049 1024 7.389 1332 827 290
723283 2013-08-24 0500 372 CQD 'Cascade' Erie PA USA na EN92wc 1052 1020 8.097 719 447 350
723285 2013-08-24 0500 372 UQN 'Onyun' Vidalia GA USA na EM82uf 1011 1012 5.722 25 510 317 221
723299 2013-08-24 0500 376 BHC Baxley GA USA na EM81tr 1021 1016 14 559 347 218
723301 2013-08-24 0500 376 ZIN Matthew Town / Great Inagua Island BAH ca FL30dx 1052 1024 8.303 400 1711 1063 162
723323 2013-08-24 0431 382 BHU 'Benje' Latrobe PA USA na FN00ij 1046 1028 6.872 25 521 324 354
723292 2013-08-24 0430 375 DW 'Owaso' Tulsa OK USA na EM26bh 1056 1033 6.005 20 1543 959 277
723284 2013-08-24 0346 372 MF 'Manns' Mansfield OH USA na EN80ss 1053 1014 5.858 649 403 330
723296 2013-08-24 0346 375 RYB Raymond MS USA na EM42th 1028 1023 6.73 25 1139 708 253
723309 2013-08-24 0331 379 MDE 'Madeira' Cincinnati OH USA na EM79tf 1023 1017 8.6 633 394 309
723306 2013-08-23 1615 379 BRA 'Broad River' Asheville NC USA na EM85sg 1042 1030 7.973 100 343 213 262
723319 2013-08-23 1615 381 MNI Manning SC USA na EM93vo 1024 1018 5.674 25 273 170 210
723335 2013-08-23 1615 384 JB 'Jigel' Lumberton NC USA na FM04kn 1019 1007 4.691 135 84 196
723273 2013-08-23 1600 370 MQI Manteo NC USA na FM25dv 1033 1035 4.107 271 168 85
723287 2013-08-23 1600 373 AEA 'Jones' South Hill VA USA na FM06xo 1019 1009 5.084 114 71 31
723294 2013-08-23 1600 375 PJS 'Henry' Newport News VA USA na FM17sd 1051 1026 8.313 25 256 159 51
719418 2013-07-08 0535 362 GND 'Port Salines' Grand Anse GRD ca FK92ca 1033 1023 10.468 150 3136 1949 142
719417 2013-07-07 0310 350 DF Deer Lake NL CAN na GN19ge 389 10.264 1000 2283 1419 42
719211 2013-07-06 0900 356 SKI Sac City IA USA na EN22mj 1021 7.134 1583 984 302
719179 2013-07-06 0830 350 CP 'Acore' Cahokia / St Louis IL USA na EM48xm 1059 1034 6.429 25 1051 653 290
719183 2013-07-06 0747 350 NY Enderby BC CAN na DO00mp 408 10.085 500 3601 2238 310
719189 2013-07-06 0747 352 VM 'Meana', Mena Intermountain Municipal AR USA na EM24xm 1049 1024 5.947 25 1399 870 268
719219 2013-07-06 0747 359 GYG Grayling MI USA na EN74or 1054 8.919 25 1125 699 334
719217 2013-07-06 0745 359 CZB Casey IL USA na EM59xh 1018 7.621 25 914 568 298
719227 2013-07-06 0745 360 JAC Jacare-a-Canga (PA) BRA sa GI13cs 1024 1034 7.155 5152 3201 150
719228 2013-07-06 0745 360 PI 'Capok' St Petersburg / Clearwater FL USA na EL87px 1017 1023 8.601 941 584 204
719264 2013-07-06 0745 368 ROQ Ruston LA USA na EM32qo 1044 1028 7.841 25 1325 823 258
719231 2013-07-06 0732 362 AK Akron OH USA na EN91hb 1046 1032 4.373 637 396 339
719250 2013-07-06 0732 365 JN 'Balll' Muncie IN USA na EN70ie 402 398 8.6 760 472 312
719252 2013-07-06 0732 365 SYZ Shelbyville IL USA na EM59nj 1007 6.585 25 984 611 297
719257 2013-07-06 0732 366 YMW Maniwaki QC CAN na FN26ae 415 400 10.166 500 1185 736 10
719190 2013-07-06 0730 353 BKS 'Brooks Co' Falfurrias TX USA na EL07we 1020 7.285 25 2067 1284 248
719205 2013-07-06 0730 356 GMZ 'Grindstone Mountain' Bowie TX USA na EM13co 1029 6.467 1758 1092 267
719207 2013-07-06 0730 356 HEU 'Hunter' Schenectady NY USA na FN32au 1033 1012 8.509 891 554 25
719208 2013-07-06 0730 356 ODX Ord NE USA na EN01mo 1017 6.452 25 1870 1162 296
719214 2013-07-06 0730 358 OG 'Ogive' Ogdensburg NY USA na FN24hq 1044 1026 5.521 1035 643 14
719188 2013-07-06 0700 352 BVG 'Boll Weevil' Enterprise AL USA na EM71ai 1047 7.939 829 515 236
719195 2013-07-06 0647 353 PG Portage MB CAN na EN09vu 1023 9.841 25 2223 1381 320
719236 2013-07-06 0645 362 JWE 'Clera' Oxford CT USA na FN31kj 1053 1030 8.086 795 494 35
719240 2013-07-06 0645 362 SC Sherbrooke QC CAN na FN45cl 392 10.663 25 1230 764 26
719243 2013-07-06 0645 362 YZS Coral Harbour NU CAN na EP84id 400 10.448 500 3175 1973 355
719261 2013-07-06 0645 368 EU 'Murey' Murray KY USA na EM56ur 1054 6.051 25 866 538 280
719271 2013-07-06 0645 369 ZDX Coolidge Saint Johns ATG ca FK97cd 1024 1015 10.452 700 2657 1651 136
719192 2013-07-06 0630 353 ICL Clarinda IA USA na EN20lr 1013 1012 6.049 25 1528 950 296
719180 2013-07-06 0547 350 D7 Kincardine ON CAN na EN94ee 1057 1028 6.193 25 973 604 346
719206 2013-07-06 0547 356 GR 'Famis' Green Bay WI USA na EN54vk 1044 1037 6.003 1259 783 323
719215 2013-07-06 0547 358 TNY 'Kelso' Fayetteville TN USA na EM65rd 1011 1008 5.551 25 712 443 267
719224 2013-07-06 0545 359 YI 'Yipps' Detroit MI USA na EN82ee 1036 1029 7.894 834 518 330
719239 2013-07-06 0545 362 SB Sudbury ON CAN na EN96mp 402 9.963 400 1228 763 351
719263 2013-07-06 0545 368 PHG Phillipsburg KS USA na EM09iq 1025 6.51 25 1859 1155 289
719267 2013-07-06 0545 368 TP 'Cosme' Tampa FL USA na EL88rc 1048 1021 6.39 922 573 204
719269 2013-07-06 0545 368 ZYZ Toronto (The Queensway) ON CAN na FN03fo 368 10.436 25 878 546 355
719182 2013-07-06 0530 350 DNS Denison IA USA na EN21hx 1019 5.712 25 1598 993 300
719210 2013-07-06 0530 356 PTT Pratt KS USA na EM07pr 1013 5.256 25 1793 1114 283
719225 2013-07-06 0530 360 BFI The Mill (Beef Island) VRG ca FK78rk 1031 8.394 100 2374 1475 140
719216 2013-07-06 0517 358 YKG Kangiqsujuaq QC CAN na FP41ao 401 10.371 1000 2916 1812 7
719249 2013-07-06 0502 365 HQG Hugoton KS USA na DM97hd 1070 1014 7.837 25 2029 1261 281
719221 2013-07-06 0445 359 LYZ 'Willis' Bainbridge GA USA na EM70rx 1013 1013 8.776 756 470 227
719237 2013-07-06 0445 362 MT Manitowac WI USA na EN64de 1051 1030 5.907 1212 753 323
719242 2013-07-06 0445 362 TC 'Tuske' Tuscaloosa AL USA na EM63dd 1054 1031 5.819 873 543 253
719247 2013-07-06 0445 365 AA 'Kenie' Fargo MN USA na EN17oa 1047 1025 5.965 100 1954 1214 315
719253 2013-07-06 0445 365 TOI 'Blood' Troy AL USA na EM61wt 1041 6.267 812 504 239
719258 2013-07-06 0445 366 ZMN Lewisville (Moncton) NB CAN na FN76oc 390 10.178 25 1638 1018 40
719254 2013-07-06 0432 365 TV 'Gwenn' Traverse City MI USA na EN74gr 1041 1019 6.132 30 1152 716 332
719260 2013-07-06 0432 367 PRI 'Perrine' Farmington MO USA na EM47ss 1021 1019 5.531 1070 665 285
719191 2013-07-06 0430 353 GVB 'Bogalusa' George R Carr Memorial Airfield LA USA na EM50bv 1042 1023 7.911 1167 725 245
719194 2013-07-06 0430 353 LI 'Lasky' Little Rock AR USA na EM34uq 1042 1032 6.241 400 1238 769 268
719198 2013-07-06 0430 353 VV 'Junne' Greensboro GA USA na EM83lp 1015 1006 4.615 459 285 240
719199 2013-07-06 0430 355 CGE Cambridge MD USA na FM18xm 1015 1014 5.653 390 242 36
719187 2013-07-06 0347 351 YKQ Waskaganish QC CAN na FO01pl 401 10.358 500 1751 1088
719193 2013-07-06 0347 353 IN 'Raize' International Falls MN USA na EN38il 1050 1024 6.043 100 1853 1151 324
719196 2013-07-06 0347 353 QG Saint Clair Beach (Windsor) ON CAN na EN82nh 383 10.718 25 815 507 335
719203 2013-07-06 0347 356 AY St Anthony NL CAN na GO11wj 403 10.233 25 2500 1553 38
719245 2013-07-06 0345 364 2B Springdale NL CAN na GN19vl 408 10.575 40 2377 1477 43
719270 2013-07-06 0345 369 TT 'Trenn' Trenton NJ USA na FN20nf 1043 1022 8.158 603 374 32
719238 2013-07-06 0332 362